sensor_id;sensor_type;location;lat;lon;timestamp;temperature;humidity
7204;DHT22;3643;52.460;13.322;2023-02-22T00:00:57;7.90;99.90
7204;DHT22;3643;52.460;13.322;2023-02-22T00:03:30;7.90;99.90
7204;DHT22;3643;52.460;13.322;2023-02-22T00:06:03;7.90;99.90
7204;DHT22;3643;52.460;13.322;2023-02-22T00:08:34;7.90;99.90
7204;DHT22;3643;52.460;13.322;2023-02-22T00:11:05;7.80;99.90
7204;DHT22;3643;52.460;13.322;2023-02-22T00:13:35;7.80;99.90
7204;DHT22;3643;52.460;13.322;2023-02-22T00:16:05;7.80;99.90
7204;DHT22;3643;52.460;13.322;2023-02-22T00:18:34;7.70;99.90
7204;DHT22;3643;52.460;13.322;2023-02-22T00:21:05;7.70;99.90
7204;DHT22;3643;52.460;13.322;2023-02-22T00:23:39;7.60;99.90
7204;DHT22;3643;52.460;13.322;2023-02-22T00:26:09;7.60;99.90
7204;DHT22;3643;52.460;13.322;2023-02-22T00:28:39;7.50;99.90
7204;DHT22;3643;52.460;13.322;2023-02-22T00:31:08;7.50;99.90
7204;DHT22;3643;52.460;13.322;2023-02-22T00:33:38;7.40;99.90
7204;DHT22;3643;52.460;13.322;2023-02-22T00:36:10;7.40;99.90
7204;DHT22;3643;52.460;13.322;2023-02-22T00:38:39;7.40;99.90
7204;DHT22;3643;52.460;13.322;2023-02-22T00:41:11;7.40;99.90
7204;DHT22;3643;52.460;13.322;2023-02-22T00:43:39;7.40;99.90
7204;DHT22;3643;52.460;13.322;2023-02-22T00:46:08;7.40;99.90
7204;DHT22;3643;52.460;13.322;2023-02-22T00:48:37;7.30;99.90
7204;DHT22;3643;52.460;13.322;2023-02-22T00:51:07;7.30;99.90
7204;DHT22;3643;52.460;13.322;2023-02-22T00:53:35;7.30;99.90
7204;DHT22;3643;52.460;13.322;2023-02-22T00:56:05;7.20;99.90
7204;DHT22;3643;52.460;13.322;2023-02-22T00:58:33;7.10;99.90
7204;DHT22;3643;52.460;13.322;2023-02-22T01:01:01;7.10;99.90
7204;DHT22;3643;52.460;13.322;2023-02-22T01:03:30;7.10;99.90
7204;DHT22;3643;52.460;13.322;2023-02-22T01:06:01;7.00;99.90
7204;DHT22;3643;52.460;13.322;2023-02-22T01:08:30;7.00;99.90
7204;DHT22;3643;52.460;13.322;2023-02-22T01:10:59;7.10;99.90
7204;DHT22;3643;52.460;13.322;2023-02-22T01:13:27;7.10;99.90
7204;DHT22;3643;52.460;13.322;2023-02-22T01:15:55;7.10;99.90
7204;DHT22;3643;52.460;13.322;2023-02-22T01:18:24;7.10;99.90
7204;DHT22;3643;52.460;13.322;2023-02-22T01:20:53;7.10;99.90
7204;DHT22;3643;52.460;13.322;2023-02-22T01:23:21;7.10;99.90
7204;DHT22;3643;52.460;13.322;2023-02-22T01:25:51;7.10;99.90
7204;DHT22;3643;52.460;13.322;2023-02-22T01:28:21;7.10;99.90
7204;DHT22;3643;52.460;13.322;2023-02-22T01:30:50;7.10;99.90
7204;DHT22;3643;52.460;13.322;2023-02-22T01:33:19;7.10;99.90
7204;DHT22;3643;52.460;13.322;2023-02-22T01:35:47;7.00;99.90
7204;DHT22;3643;52.460;13.322;2023-02-22T01:38:17;7.00;99.90
7204;DHT22;3643;52.460;13.322;2023-02-22T01:40:47;7.00;99.90
7204;DHT22;3643;52.460;13.322;2023-02-22T01:43:22;6.90;99.90
7204;DHT22;3643;52.460;13.322;2023-02-22T01:45:59;6.90;99.90
7204;DHT22;3643;52.460;13.322;2023-02-22T01:48:36;6.90;99.90
7204;DHT22;3643;52.460;13.322;2023-02-22T01:51:08;6.90;99.90
7204;DHT22;3643;52.460;13.322;2023-02-22T01:53:43;6.90;99.90
7204;DHT22;3643;52.460;13.322;2023-02-22T01:56:14;6.90;99.90
7204;DHT22;3643;52.460;13.322;2023-02-22T01:58:47;6.90;99.90
7204;DHT22;3643;52.460;13.322;2023-02-22T02:01:17;6.90;99.90
7204;DHT22;3643;52.460;13.322;2023-02-22T02:03:48;6.90;99.90
7204;DHT22;3643;52.460;13.322;2023-02-22T02:06:18;6.90;99.90
7204;DHT22;3643;52.460;13.322;2023-02-22T02:08:59;6.90;99.90
7204;DHT22;3643;52.460;13.322;2023-02-22T02:11:30;6.90;99.90
7204;DHT22;3643;52.460;13.322;2023-02-22T02:14:01;6.90;99.90
7204;DHT22;3643;52.460;13.322;2023-02-22T02:16:36;6.90;99.90
7204;DHT22;3643;52.460;13.322;2023-02-22T02:19:13;6.90;99.90
7204;DHT22;3643;52.460;13.322;2023-02-22T02:22:18;6.90;99.90
7204;DHT22;3643;52.460;13.322;2023-02-22T02:28:20;6.90;99.90
7204;DHT22;3643;52.460;13.322;2023-02-22T02:34:15;6.80;99.90
7204;DHT22;3643;52.460;13.322;2023-02-22T02:36:49;6.80;99.90
7204;DHT22;3643;52.460;13.322;2023-02-22T02:39:25;6.70;99.90
7204;DHT22;3643;52.460;13.322;2023-02-22T02:41:56;6.60;99.90
7204;DHT22;3643;52.460;13.322;2023-02-22T02:44:30;6.50;99.90
7204;DHT22;3643;52.460;13.322;2023-02-22T02:47:00;6.50;99.90
7204;DHT22;3643;52.460;13.322;2023-02-22T02:49:35;6.40;99.90
7204;DHT22;3643;52.460;13.322;2023-02-22T02:52:05;6.40;99.90
7204;DHT22;3643;52.460;13.322;2023-02-22T02:54:36;6.40;99.90
7204;DHT22;3643;52.460;13.322;2023-02-22T02:57:06;6.40;99.90
7204;DHT22;3643;52.460;13.322;2023-02-22T02:59:36;6.40;99.90
7204;DHT22;3643;52.460;13.322;2023-02-22T03:02:33;6.40;99.90
7204;DHT22;3643;52.460;13.322;2023-02-22T03:05:18;6.40;99.90
7204;DHT22;3643;52.460;13.322;2023-02-22T03:07:57;6.40;99.90
7204;DHT22;3643;52.460;13.322;2023-02-22T03:10:42;6.40;99.90
7204;DHT22;3643;52.460;13.322;2023-02-22T03:13:18;6.40;99.90
7204;DHT22;3643;52.460;13.322;2023-02-22T03:15:52;6.40;99.90
7204;DHT22;3643;52.460;13.322;2023-02-22T03:18:28;6.40;99.90
7204;DHT22;3643;52.460;13.322;2023-02-22T03:21:07;6.40;99.90
7204;DHT22;3643;52.460;13.322;2023-02-22T03:23:44;6.40;99.90
7204;DHT22;3643;52.460;13.322;2023-02-22T03:26:20;6.40;99.90
7204;DHT22;3643;52.460;13.322;2023-02-22T03:28:52;6.50;99.90
7204;DHT22;3643;52.460;13.322;2023-02-22T03:31:24;6.50;99.90
7204;DHT22;3643;52.460;13.322;2023-02-22T03:33:55;6.50;99.90
7204;DHT22;3643;52.460;13.322;2023-02-22T03:36:29;6.50;99.90
7204;DHT22;3643;52.460;13.322;2023-02-22T03:39:00;6.50;99.90
7204;DHT22;3643;52.460;13.322;2023-02-22T03:41:31;6.50;99.90
7204;DHT22;3643;52.460;13.322;2023-02-22T03:44:03;6.50;99.90
7204;DHT22;3643;52.460;13.322;2023-02-22T03:46:34;6.60;99.90
7204;DHT22;3643;52.460;13.322;2023-02-22T03:49:08;6.60;99.90
7204;DHT22;3643;52.460;13.322;2023-02-22T03:51:39;6.60;99.90
7204;DHT22;3643;52.460;13.322;2023-02-22T03:54:08;6.60;99.90
7204;DHT22;3643;52.460;13.322;2023-02-22T03:56:46;6.60;99.90
7204;DHT22;3643;52.460;13.322;2023-02-22T03:59:16;6.60;99.90
7204;DHT22;3643;52.460;13.322;2023-02-22T04:01:45;6.60;99.90
7204;DHT22;3643;52.460;13.322;2023-02-22T04:04:13;6.60;99.90
7204;DHT22;3643;52.460;13.322;2023-02-22T04:06:46;6.60;99.90
7204;DHT22;3643;52.460;13.322;2023-02-22T04:09:16;6.70;99.90
7204;DHT22;3643;52.460;13.322;2023-02-22T04:11:44;6.70;99.90
7204;DHT22;3643;52.460;13.322;2023-02-22T04:14:13;6.70;99.90
7204;DHT22;3643;52.460;13.322;2023-02-22T04:16:41;6.70;99.90
7204;DHT22;3643;52.460;13.322;2023-02-22T04:19:10;6.70;99.90
7204;DHT22;3643;52.460;13.322;2023-02-22T04:21:38;6.70;99.90
7204;DHT22;3643;52.460;13.322;2023-02-22T04:24:08;6.70;99.90
7204;DHT22;3643;52.460;13.322;2023-02-22T04:26:36;6.10;99.90
7204;DHT22;3643;52.460;13.322;2023-02-22T04:29:04;6.70;99.90
7204;DHT22;3643;52.460;13.322;2023-02-22T04:31:34;6.70;99.90
7204;DHT22;3643;52.460;13.322;2023-02-22T04:34:02;6.70;99.90
7204;DHT22;3643;52.460;13.322;2023-02-22T04:36:32;6.70;99.90
7204;DHT22;3643;52.460;13.322;2023-02-22T04:39:00;6.70;99.90
7204;DHT22;3643;52.460;13.322;2023-02-22T04:41:31;6.70;99.90
7204;DHT22;3643;52.460;13.322;2023-02-22T04:44:00;6.70;99.90
7204;DHT22;3643;52.460;13.322;2023-02-22T04:46:28;6.70;99.90
7204;DHT22;3643;52.460;13.322;2023-02-22T04:48:57;6.70;99.90
7204;DHT22;3643;52.460;13.322;2023-02-22T04:51:26;6.70;99.90
7204;DHT22;3643;52.460;13.322;2023-02-22T04:53:54;6.70;99.90
7204;DHT22;3643;52.460;13.322;2023-02-22T04:56:23;6.70;99.90
7204;DHT22;3643;52.460;13.322;2023-02-22T04:58:53;6.70;99.90
7204;DHT22;3643;52.460;13.322;2023-02-22T05:01:21;6.70;99.90
7204;DHT22;3643;52.460;13.322;2023-02-22T05:03:50;6.70;99.90
7204;DHT22;3643;52.460;13.322;2023-02-22T05:06:18;6.70;99.90
7204;DHT22;3643;52.460;13.322;2023-02-22T05:08:46;6.70;99.90
7204;DHT22;3643;52.460;13.322;2023-02-22T05:11:14;6.70;99.90
7204;DHT22;3643;52.460;13.322;2023-02-22T05:13:43;6.70;99.90
7204;DHT22;3643;52.460;13.322;2023-02-22T05:16:12;6.70;99.90
7204;DHT22;3643;52.460;13.322;2023-02-22T05:18:41;6.70;99.90
7204;DHT22;3643;52.460;13.322;2023-02-22T05:21:09;6.70;99.90
7204;DHT22;3643;52.460;13.322;2023-02-22T05:23:37;6.70;99.90
7204;DHT22;3643;52.460;13.322;2023-02-22T05:26:05;6.70;99.90
7204;DHT22;3643;52.460;13.322;2023-02-22T05:28:35;6.70;99.90
7204;DHT22;3643;52.460;13.322;2023-02-22T05:31:03;6.70;99.90
7204;DHT22;3643;52.460;13.322;2023-02-22T05:33:34;6.80;99.90
7204;DHT22;3643;52.460;13.322;2023-02-22T05:36:02;6.80;99.90
7204;DHT22;3643;52.460;13.322;2023-02-22T05:38:30;6.80;99.90
7204;DHT22;3643;52.460;13.322;2023-02-22T05:40:59;6.80;99.90
7204;DHT22;3643;52.460;13.322;2023-02-22T05:43:27;6.80;99.90
7204;DHT22;3643;52.460;13.322;2023-02-22T05:45:55;6.80;99.90
7204;DHT22;3643;52.460;13.322;2023-02-22T05:48:23;6.80;99.90
7204;DHT22;3643;52.460;13.322;2023-02-22T05:50:52;6.80;99.90
7204;DHT22;3643;52.460;13.322;2023-02-22T05:53:21;6.90;99.90
7204;DHT22;3643;52.460;13.322;2023-02-22T05:55:50;6.80;99.90
7204;DHT22;3643;52.460;13.322;2023-02-22T05:58:18;6.80;99.90
7204;DHT22;3643;52.460;13.322;2023-02-22T06:00:46;6.90;99.90
7204;DHT22;3643;52.460;13.322;2023-02-22T06:03:15;6.90;99.90
7204;DHT22;3643;52.460;13.322;2023-02-22T06:05:43;6.90;99.90
7204;DHT22;3643;52.460;13.322;2023-02-22T06:08:12;6.90;99.90
7204;DHT22;3643;52.460;13.322;2023-02-22T06:10:40;6.90;99.90
7204;DHT22;3643;52.460;13.322;2023-02-22T06:13:08;6.90;99.90
7204;DHT22;3643;52.460;13.322;2023-02-22T06:15:37;6.90;99.90
7204;DHT22;3643;52.460;13.322;2023-02-22T06:18:05;6.90;99.90
7204;DHT22;3643;52.460;13.322;2023-02-22T06:20:33;7.00;99.90
7204;DHT22;3643;52.460;13.322;2023-02-22T06:23:01;7.00;99.90
7204;DHT22;3643;52.460;13.322;2023-02-22T06:25:31;6.90;99.90
7204;DHT22;3643;52.460;13.322;2023-02-22T06:28:00;7.00;99.90
7204;DHT22;3643;52.460;13.322;2023-02-22T06:30:29;7.00;99.90
7204;DHT22;3643;52.460;13.322;2023-02-22T06:32:57;7.00;99.90
7204;DHT22;3643;52.460;13.322;2023-02-22T06:35:25;7.20;99.90
7204;DHT22;3643;52.460;13.322;2023-02-22T06:37:53;7.00;99.90
7204;DHT22;3643;52.460;13.322;2023-02-22T06:40:21;7.00;99.90
7204;DHT22;3643;52.460;13.322;2023-02-22T06:42:51;7.10;99.90
7204;DHT22;3643;52.460;13.322;2023-02-22T06:45:20;7.10;99.90
7204;DHT22;3643;52.460;13.322;2023-02-22T06:47:48;7.10;99.90
7204;DHT22;3643;52.460;13.322;2023-02-22T06:50:19;7.10;99.90
7204;DHT22;3643;52.460;13.322;2023-02-22T06:52:48;7.10;99.90
7204;DHT22;3643;52.460;13.322;2023-02-22T06:55:18;7.10;99.90
7204;DHT22;3643;52.460;13.322;2023-02-22T06:57:47;7.10;99.90
7204;DHT22;3643;52.460;13.322;2023-02-22T07:00:18;7.20;99.90
7204;DHT22;3643;52.460;13.322;2023-02-22T07:02:47;7.30;99.90
7204;DHT22;3643;52.460;13.322;2023-02-22T07:05:16;7.40;99.90
7204;DHT22;3643;52.460;13.322;2023-02-22T07:07:45;7.30;99.90
7204;DHT22;3643;52.460;13.322;2023-02-22T07:10:18;7.40;99.90
7204;DHT22;3643;52.460;13.322;2023-02-22T07:12:46;6.60;99.90
7204;DHT22;3643;52.460;13.322;2023-02-22T07:15:18;7.50;99.90
7204;DHT22;3643;52.460;13.322;2023-02-22T07:17:47;7.50;99.90
7204;DHT22;3643;52.460;13.322;2023-02-22T07:20:16;7.50;99.90
7204;DHT22;3643;52.460;13.322;2023-02-22T07:22:44;7.60;99.90
7204;DHT22;3643;52.460;13.322;2023-02-22T07:25:12;7.60;99.90
7204;DHT22;3643;52.460;13.322;2023-02-22T07:27:41;7.70;99.90
7204;DHT22;3643;52.460;13.322;2023-02-22T07:30:17;7.70;99.90
7204;DHT22;3643;52.460;13.322;2023-02-22T07:32:46;7.80;99.90
7204;DHT22;3643;52.460;13.322;2023-02-22T07:35:15;7.70;99.90
7204;DHT22;3643;52.460;13.322;2023-02-22T07:37:43;7.70;99.90
7204;DHT22;3643;52.460;13.322;2023-02-22T07:40:15;7.70;99.90
7204;DHT22;3643;52.460;13.322;2023-02-22T07:42:54;7.90;99.90
7204;DHT22;3643;52.460;13.322;2023-02-22T07:45:25;7.90;99.90
7204;DHT22;3643;52.460;13.322;2023-02-22T07:47:53;7.90;99.90
7204;DHT22;3643;52.460;13.322;2023-02-22T07:50:23;8.00;99.90
7204;DHT22;3643;52.460;13.322;2023-02-22T07:52:53;8.20;99.90
7204;DHT22;3643;52.460;13.322;2023-02-22T07:55:22;8.10;99.90
7204;DHT22;3643;52.460;13.322;2023-02-22T07:57:53;8.10;99.90
7204;DHT22;3643;52.460;13.322;2023-02-22T08:00:25;8.10;99.90
7204;DHT22;3643;52.460;13.322;2023-02-22T08:02:54;8.20;99.90
7204;DHT22;3643;52.460;13.322;2023-02-22T08:05:24;8.20;99.90
7204;DHT22;3643;52.460;13.322;2023-02-22T08:07:53;8.20;99.90
7204;DHT22;3643;52.460;13.322;2023-02-22T08:10:23;8.20;99.90
7204;DHT22;3643;52.460;13.322;2023-02-22T08:12:52;8.20;99.90
7204;DHT22;3643;52.460;13.322;2023-02-22T08:15:25;8.30;99.90
7204;DHT22;3643;52.460;13.322;2023-02-22T08:17:55;8.40;99.90
7204;DHT22;3643;52.460;13.322;2023-02-22T08:20:24;8.50;99.90
7204;DHT22;3643;52.460;13.322;2023-02-22T08:22:53;8.50;99.90
7204;DHT22;3643;52.460;13.322;2023-02-22T08:25:23;8.40;99.90
7204;DHT22;3643;52.460;13.322;2023-02-22T08:27:54;8.50;99.90
7204;DHT22;3643;52.460;13.322;2023-02-22T08:30:26;8.50;99.90
7204;DHT22;3643;52.460;13.322;2023-02-22T08:32:56;8.50;99.90
7204;DHT22;3643;52.460;13.322;2023-02-22T08:35:25;8.60;99.90
7204;DHT22;3643;52.460;13.322;2023-02-22T08:37:55;8.60;99.90
7204;DHT22;3643;52.460;13.322;2023-02-22T08:40:28;8.60;99.90
7204;DHT22;3643;52.460;13.322;2023-02-22T08:42:56;8.70;99.90
7204;DHT22;3643;52.460;13.322;2023-02-22T08:45:26;8.60;99.90
7204;DHT22;3643;52.460;13.322;2023-02-22T08:47:54;8.70;99.90
7204;DHT22;3643;52.460;13.322;2023-02-22T08:50:25;8.80;99.90
7204;DHT22;3643;52.460;13.322;2023-02-22T08:52:54;8.80;99.90
7204;DHT22;3643;52.460;13.322;2023-02-22T08:55:25;8.70;99.90
7204;DHT22;3643;52.460;13.322;2023-02-22T08:57:54;8.90;99.90
7204;DHT22;3643;52.460;13.322;2023-02-22T09:00:22;8.70;99.90
7204;DHT22;3643;52.460;13.322;2023-02-22T09:02:54;8.70;99.90
7204;DHT22;3643;52.460;13.322;2023-02-22T09:05:22;8.90;99.90
7204;DHT22;3643;52.460;13.322;2023-02-22T09:07:50;8.80;99.90
7204;DHT22;3643;52.460;13.322;2023-02-22T09:10:22;8.60;99.90
7204;DHT22;3643;52.460;13.322;2023-02-22T09:12:50;8.80;99.90
7204;DHT22;3643;52.460;13.322;2023-02-22T09:15:18;8.90;99.90
7204;DHT22;3643;52.460;13.322;2023-02-22T09:17:47;9.00;99.90
7204;DHT22;3643;52.460;13.322;2023-02-22T09:20:18;9.10;99.90
7204;DHT22;3643;52.460;13.322;2023-02-22T09:22:47;9.20;99.90
7204;DHT22;3643;52.460;13.322;2023-02-22T09:25:16;9.10;99.90
7204;DHT22;3643;52.460;13.322;2023-02-22T09:27:47;9.10;99.90
7204;DHT22;3643;52.460;13.322;2023-02-22T09:30:20;9.20;99.90
7204;DHT22;3643;52.460;13.322;2023-02-22T09:32:51;9.40;99.90
7204;DHT22;3643;52.460;13.322;2023-02-22T09:35:22;9.20;99.90
7204;DHT22;3643;52.460;13.322;2023-02-22T09:37:54;9.20;99.90
7204;DHT22;3643;52.460;13.322;2023-02-22T09:40:24;9.20;99.90
7204;DHT22;3643;52.460;13.322;2023-02-22T09:43:14;9.30;99.90
7204;DHT22;3643;52.460;13.322;2023-02-22T09:45:55;9.30;99.90
7204;DHT22;3643;52.460;13.322;2023-02-22T09:48:29;9.20;99.90
7204;DHT22;3643;52.460;13.322;2023-02-22T09:51:02;9.20;99.90
7204;DHT22;3643;52.460;13.322;2023-02-22T09:53:36;9.40;99.90
7204;DHT22;3643;52.460;13.322;2023-02-22T09:56:09;9.50;99.90
7204;DHT22;3643;52.460;13.322;2023-02-22T09:58:40;9.70;99.90
7204;DHT22;3643;52.460;13.322;2023-02-22T10:01:18;9.90;99.90
7204;DHT22;3643;52.460;13.322;2023-02-22T10:03:55;10.00;99.90
7204;DHT22;3643;52.460;13.322;2023-02-22T10:06:27;10.10;99.90
7204;DHT22;3643;52.460;13.322;2023-02-22T10:08:59;10.20;99.90
7204;DHT22;3643;52.460;13.322;2023-02-22T10:11:47;10.10;99.90
7204;DHT22;3643;52.460;13.322;2023-02-22T10:14:44;10.20;99.90
7204;DHT22;3643;52.460;13.322;2023-02-22T10:17:23;10.00;99.90
7204;DHT22;3643;52.460;13.322;2023-02-22T10:20:06;9.80;99.90
7204;DHT22;3643;52.460;13.322;2023-02-22T10:22:51;9.90;99.90
7204;DHT22;3643;52.460;13.322;2023-02-22T10:25:24;10.00;99.90
7204;DHT22;3643;52.460;13.322;2023-02-22T10:27:56;10.20;99.90
7204;DHT22;3643;52.460;13.322;2023-02-22T10:30:29;10.30;99.90
7204;DHT22;3643;52.460;13.322;2023-02-22T10:33:07;10.30;99.90
7204;DHT22;3643;52.460;13.322;2023-02-22T10:35:38;10.30;99.90
7204;DHT22;3643;52.460;13.322;2023-02-22T10:38:15;10.50;99.90
7204;DHT22;3643;52.460;13.322;2023-02-22T10:40:48;10.60;99.90
7204;DHT22;3643;52.460;13.322;2023-02-22T10:43:16;10.70;99.90
7204;DHT22;3643;52.460;13.322;2023-02-22T10:45:44;10.80;99.90
7204;DHT22;3643;52.460;13.322;2023-02-22T10:48:15;10.90;99.90
7204;DHT22;3643;52.460;13.322;2023-02-22T10:50:46;10.90;99.90
7204;DHT22;3643;52.460;13.322;2023-02-22T10:53:17;10.90;99.90
7204;DHT22;3643;52.460;13.322;2023-02-22T10:56:08;11.00;99.90
7204;DHT22;3643;52.460;13.322;2023-02-22T10:58:41;11.00;99.90
7204;DHT22;3643;52.460;13.322;2023-02-22T11:01:25;10.80;99.90
7204;DHT22;3643;52.460;13.322;2023-02-22T11:04:03;10.60;99.90
7204;DHT22;3643;52.460;13.322;2023-02-22T11:06:33;10.60;99.90
7204;DHT22;3643;52.460;13.322;2023-02-22T11:09:09;10.50;99.90
7204;DHT22;3643;52.460;13.322;2023-02-22T11:11:38;10.40;99.90
7204;DHT22;3643;52.460;13.322;2023-02-22T11:14:08;10.40;99.90
7204;DHT22;3643;52.460;13.322;2023-02-22T11:16:39;10.30;99.90
7204;DHT22;3643;52.460;13.322;2023-02-22T11:19:20;10.20;99.90
7204;DHT22;3643;52.460;13.322;2023-02-22T11:21:52;10.20;99.90
7204;DHT22;3643;52.460;13.322;2023-02-22T11:24:23;10.30;99.90
7204;DHT22;3643;52.460;13.322;2023-02-22T11:27:00;10.40;99.90
7204;DHT22;3643;52.460;13.322;2023-02-22T11:29:31;10.40;99.90
7204;DHT22;3643;52.460;13.322;2023-02-22T11:32:01;10.40;99.90
7204;DHT22;3643;52.460;13.322;2023-02-22T11:34:34;10.40;99.90
7204;DHT22;3643;52.460;13.322;2023-02-22T11:37:18;10.40;99.90
7204;DHT22;3643;52.460;13.322;2023-02-22T11:40:03;10.40;99.90
7204;DHT22;3643;52.460;13.322;2023-02-22T11:42:33;10.50;99.90
7204;DHT22;3643;52.460;13.322;2023-02-22T11:45:09;10.50;99.90
7204;DHT22;3643;52.460;13.322;2023-02-22T11:47:50;10.60;99.90
7204;DHT22;3643;52.460;13.322;2023-02-22T11:50:30;10.50;99.90
7204;DHT22;3643;52.460;13.322;2023-02-22T11:53:14;10.40;99.90
7204;DHT22;3643;52.460;13.322;2023-02-22T11:55:52;10.40;99.90
7204;DHT22;3643;52.460;13.322;2023-02-22T11:58:32;10.40;99.90
7204;DHT22;3643;52.460;13.322;2023-02-22T12:01:07;10.60;99.90
7204;DHT22;3643;52.460;13.322;2023-02-22T12:06:45;10.60;99.90
7204;DHT22;3643;52.460;13.322;2023-02-22T12:09:20;10.60;99.90
7204;DHT22;3643;52.460;13.322;2023-02-22T12:12:01;10.50;99.90
7204;DHT22;3643;52.460;13.322;2023-02-22T12:14:40;10.40;99.90
7204;DHT22;3643;52.460;13.322;2023-02-22T12:17:23;10.50;99.90
7204;DHT22;3643;52.460;13.322;2023-02-22T12:19:56;10.70;99.90
7204;DHT22;3643;52.460;13.322;2023-02-22T12:22:31;10.80;99.90
7204;DHT22;3643;52.460;13.322;2023-02-22T12:25:03;10.80;99.90
7204;DHT22;3643;52.460;13.322;2023-02-22T12:27:40;11.00;99.90
7204;DHT22;3643;52.460;13.322;2023-02-22T12:30:14;11.00;99.90
7204;DHT22;3643;52.460;13.322;2023-02-22T12:32:46;11.10;99.90
7204;DHT22;3643;52.460;13.322;2023-02-22T12:35:19;10.80;99.90
7204;DHT22;3643;52.460;13.322;2023-02-22T12:37:53;10.70;99.90
7204;DHT22;3643;52.460;13.322;2023-02-22T12:40:30;10.80;99.90
7204;DHT22;3643;52.460;13.322;2023-02-22T12:43:07;10.80;99.90
7204;DHT22;3643;52.460;13.322;2023-02-22T12:45:45;11.00;99.90
7204;DHT22;3643;52.460;13.322;2023-02-22T12:48:39;11.00;99.90
7204;DHT22;3643;52.460;13.322;2023-02-22T12:51:22;10.80;99.90
7204;DHT22;3643;52.460;13.322;2023-02-22T12:53:58;10.80;99.90
7204;DHT22;3643;52.460;13.322;2023-02-22T12:56:31;10.90;99.90
7204;DHT22;3643;52.460;13.322;2023-02-22T12:59:09;10.90;99.90
7204;DHT22;3643;52.460;13.322;2023-02-22T13:01:41;10.80;99.90
7204;DHT22;3643;52.460;13.322;2023-02-22T13:04:11;10.80;99.90
7204;DHT22;3643;52.460;13.322;2023-02-22T13:07:00;11.00;99.90
7204;DHT22;3643;52.460;13.322;2023-02-22T13:09:55;10.90;99.90
7204;DHT22;3643;52.460;13.322;2023-02-22T13:12:34;10.90;99.90
7204;DHT22;3643;52.460;13.322;2023-02-22T13:15:14;10.80;99.90
7204;DHT22;3643;52.460;13.322;2023-02-22T13:17:49;10.80;99.90
7204;DHT22;3643;52.460;13.322;2023-02-22T13:20:22;10.60;99.90
7204;DHT22;3643;52.460;13.322;2023-02-22T13:22:58;10.50;99.90
7204;DHT22;3643;52.460;13.322;2023-02-22T13:25:35;10.40;99.90
7204;DHT22;3643;52.460;13.322;2023-02-22T13:28:19;10.50;99.90
7204;DHT22;3643;52.460;13.322;2023-02-22T13:31:00;10.60;99.90
7204;DHT22;3643;52.460;13.322;2023-02-22T13:33:45;10.70;99.90
7204;DHT22;3643;52.460;13.322;2023-02-22T13:36:31;10.60;99.90
7204;DHT22;3643;52.460;13.322;2023-02-22T13:39:20;10.60;99.90
7204;DHT22;3643;52.460;13.322;2023-02-22T13:42:06;10.60;99.90
7204;DHT22;3643;52.460;13.322;2023-02-22T13:48:11;10.60;99.90
7204;DHT22;3643;52.460;13.322;2023-02-22T13:51:10;10.50;99.90
7204;DHT22;3643;52.460;13.322;2023-02-22T13:53:46;10.40;99.90
7204;DHT22;3643;52.460;13.322;2023-02-22T13:56:18;10.50;99.90
7204;DHT22;3643;52.460;13.322;2023-02-22T13:58:51;10.50;99.90
7204;DHT22;3643;52.460;13.322;2023-02-22T14:01:38;10.60;99.90
7204;DHT22;3643;52.460;13.322;2023-02-22T14:04:38;10.70;99.90
7204;DHT22;3643;52.460;13.322;2023-02-22T14:13:23;10.70;99.90
7204;DHT22;3643;52.460;13.322;2023-02-22T14:16:18;10.80;99.90
7204;DHT22;3643;52.460;13.322;2023-02-22T14:18:49;10.70;99.90
7204;DHT22;3643;52.460;13.322;2023-02-22T14:21:28;10.60;99.90
7204;DHT22;3643;52.460;13.322;2023-02-22T14:24:06;10.60;99.90
7204;DHT22;3643;52.460;13.322;2023-02-22T14:26:35;10.60;99.90
7204;DHT22;3643;52.460;13.322;2023-02-22T14:29:15;10.70;99.90
7204;DHT22;3643;52.460;13.322;2023-02-22T14:32:04;10.70;99.90
7204;DHT22;3643;52.460;13.322;2023-02-22T14:34:48;10.60;99.90
7204;DHT22;3643;52.460;13.322;2023-02-22T14:37:21;10.60;99.90
7204;DHT22;3643;52.460;13.322;2023-02-22T14:39:53;10.40;99.90
7204;DHT22;3643;52.460;13.322;2023-02-22T14:42:29;10.30;99.90
7204;DHT22;3643;52.460;13.322;2023-02-22T14:45:04;10.30;99.90
7204;DHT22;3643;52.460;13.322;2023-02-22T14:47:44;10.30;99.90
7204;DHT22;3643;52.460;13.322;2023-02-22T14:50:20;10.40;99.90
7204;DHT22;3643;52.460;13.322;2023-02-22T14:53:00;10.20;99.90
7204;DHT22;3643;52.460;13.322;2023-02-22T14:55:31;10.20;99.90
7204;DHT22;3643;52.460;13.322;2023-02-22T14:58:06;10.20;99.90
7204;DHT22;3643;52.460;13.322;2023-02-22T15:00:38;10.30;99.90
7204;DHT22;3643;52.460;13.322;2023-02-22T15:03:18;10.30;99.90
7204;DHT22;3643;52.460;13.322;2023-02-22T15:05:50;10.20;99.90
7204;DHT22;3643;52.460;13.322;2023-02-22T15:08:18;10.20;99.90
7204;DHT22;3643;52.460;13.322;2023-02-22T15:10:54;10.10;99.90
7204;DHT22;3643;52.460;13.322;2023-02-22T15:13:24;10.20;99.90
7204;DHT22;3643;52.460;13.322;2023-02-22T15:15:56;10.10;99.90
7204;DHT22;3643;52.460;13.322;2023-02-22T15:18:31;10.00;99.90
7204;DHT22;3643;52.460;13.322;2023-02-22T15:21:05;9.90;99.90
7204;DHT22;3643;52.460;13.322;2023-02-22T15:23:41;9.90;99.90
7204;DHT22;3643;52.460;13.322;2023-02-22T15:26:18;9.90;99.90
7204;DHT22;3643;52.460;13.322;2023-02-22T15:28:47;9.80;99.90
7204;DHT22;3643;52.460;13.322;2023-02-22T15:31:28;9.80;99.90
7204;DHT22;3643;52.460;13.322;2023-02-22T15:34:08;9.80;99.90
7204;DHT22;3643;52.460;13.322;2023-02-22T15:36:38;9.70;99.90
7204;DHT22;3643;52.460;13.322;2023-02-22T15:39:18;9.70;99.90
7204;DHT22;3643;52.460;13.322;2023-02-22T15:41:46;9.60;99.90
7204;DHT22;3643;52.460;13.322;2023-02-22T15:44:14;9.60;99.90
7204;DHT22;3643;52.460;13.322;2023-02-22T15:46:51;9.50;99.90
7204;DHT22;3643;52.460;13.322;2023-02-22T15:49:22;9.50;99.90
7204;DHT22;3643;52.460;13.322;2023-02-22T15:52:06;9.50;99.90
7204;DHT22;3643;52.460;13.322;2023-02-22T15:54:44;9.50;99.90
7204;DHT22;3643;52.460;13.322;2023-02-22T15:57:15;9.40;99.90
7204;DHT22;3643;52.460;13.322;2023-02-22T15:59:47;9.40;99.90
7204;DHT22;3643;52.460;13.322;2023-02-22T16:02:29;9.40;99.90
7204;DHT22;3643;52.460;13.322;2023-02-22T16:05:00;9.30;99.90
7204;DHT22;3643;52.460;13.322;2023-02-22T16:07:29;9.30;99.90
7204;DHT22;3643;52.460;13.322;2023-02-22T16:09:58;9.30;99.90
7204;DHT22;3643;52.460;13.322;2023-02-22T16:12:34;9.30;99.90
7204;DHT22;3643;52.460;13.322;2023-02-22T16:15:02;9.20;99.90
7204;DHT22;3643;52.460;13.322;2023-02-22T16:17:43;9.20;99.90
7204;DHT22;3643;52.460;13.322;2023-02-22T16:20:32;9.20;99.90
7204;DHT22;3643;52.460;13.322;2023-02-22T16:23:21;9.10;99.90
7204;DHT22;3643;52.460;13.322;2023-02-22T16:26:16;9.10;99.90
7204;DHT22;3643;52.460;13.322;2023-02-22T16:28:49;9.10;99.90
7204;DHT22;3643;52.460;13.322;2023-02-22T16:31:23;8.90;99.90
7204;DHT22;3643;52.460;13.322;2023-02-22T16:33:53;8.90;99.90
7204;DHT22;3643;52.460;13.322;2023-02-22T16:36:34;8.80;99.90
7204;DHT22;3643;52.460;13.322;2023-02-22T16:39:05;8.70;99.90
7204;DHT22;3643;52.460;13.322;2023-02-22T16:41:36;8.70;99.90
7204;DHT22;3643;52.460;13.322;2023-02-22T16:44:06;8.60;99.90
7204;DHT22;3643;52.460;13.322;2023-02-22T16:46:34;8.60;99.90
7204;DHT22;3643;52.460;13.322;2023-02-22T16:49:05;8.50;99.90
7204;DHT22;3643;52.460;13.322;2023-02-22T16:51:39;8.40;99.90
7204;DHT22;3643;52.460;13.322;2023-02-22T16:54:10;8.40;99.90